Nanning Wuxu Airport
ZGNN : rendu visible

Aérodrome :











RETROUVEZ-NOUS SUR...

 
LOGIN :

S'inscrire | Disclaimer

   EN    FR    IT 

 









Légende :    VFR   VFR Marginal   IFR   IFR Intensif   IFR Très Intensif
Visi : 
Plafond : 
>= 8 km
>= 3000ft
5 à 8 km
1000 à 3000 ft
1500m à 5 km
500 à 1000 ft
800 à 1500m
200 à 500 ft
< 800m
< 200 ft
Symboles :   Orages  Brouillard  Fortes neiges  Fortes précipitations  Vent > 20 kt






- Altitude de l'aérodrome : 421 ft
- Code IATA : NNG


ZGNN - Nanning Wuxu

DERNIER METAR :
  • 070000Z 23002MPS 210V300 9999 PRFG NSC 05/03 Q1029 NOSIG

METARs EXPIRÉS :
  • 062300Z VRB01MPS CAVOK 05/03 Q1029 NOSIG
  • 062200Z VRB01MPS CAVOK 05/03 Q1028 NOSIG

TAF TAF ZGNN
Valide du 07 à 00h jusqu'au 08 à 00h UTC


061908Z 0700/0724 02003MPS CAVOK TX21/0707Z TN06/0722Z



MET'MAP, la Météo Aéronautique d'un coup d'oeil ! - Copyright ORBIFLY Décembre 2007 - Disclaimer

ORBIFLY MET'MAP TEAM :

Programmation & Développement : Alexandra Zaïnal
Sur une idée originale de : Baudouin d'Aumeries
Assistance à la programmation : Marc-Olivier Méhu
Soutien technique & logistique : Manuel Goepfert

Contact : metmap@orbifly.com




SOURCES & CREDITS :

   NOAA       Earth
Advisory